Time;durP1;ratioP1;P1;durP2;ratioP2;P2;SDS_P1;SDS_P2;PMS_P1;PMS_P2;Temp;Humidity;BMP_temperature;BMP_pressure;BME280_temperature;BME280_humidity;BME280_pressure;Samples;Min_cycle;Max_cycle;Signal;HPM_P1;HPM_P2
2023/11/02 00:01:07;;;;;;;0.73;0.32;;;14.10;68.20;15.60;98888.00;;;;5015851;28;20196;-80
2023/11/02 00:03:36;;;;;;;1.02;0.45;;;14.10;68.40;15.70;98883.00;;;;5022995;28;20224;-80
2023/11/02 00:06:33;;;;;;;1.00;0.60;;;14.20;68.30;15.60;98879.00;;;;5028201;28;20196;-80
2023/11/02 00:09:35;;;;;;;2.35;0.82;;;14.20;68.50;15.60;98857.00;;;;5027560;28;20666;-80
2023/11/02 00:12:04;;;;;;;4.20;0.65;;;14.20;68.50;15.70;98847.00;;;;5027966;28;20210;-80
2023/11/02 00:14:51;;;;;;;1.95;0.43;;;14.20;68.40;15.60;98840.00;;;;5027180;28;20192;-80
2023/11/02 00:17:59;;;;;;;1.30;0.70;;;14.10;68.50;15.60;98839.00;;;;5028181;28;20204;-80
2023/11/02 00:20:37;;;;;;;1.73;0.65;;;14.20;68.60;15.70;98822.00;;;;5026096;28;20215;-80
2023/11/02 00:23:06;;;;;;;2.50;0.50;;;14.20;68.60;15.80;98814.00;;;;5026751;28;20261;-80
2023/11/02 00:25:57;;;;;;;1.60;0.60;;;14.20;68.60;15.70;98810.00;;;;5027733;28;20559;-80
2023/11/02 00:28:25;;;;;;;1.65;0.50;;;14.20;68.70;15.80;98801.00;;;;5027626;28;20207;-80
2023/11/02 00:30:53;;;;;;;3.10;0.90;;;14.30;68.60;15.80;98793.00;;;;5026764;28;20211;-80
2023/11/02 00:33:22;;;;;;;1.48;0.90;;;14.30;68.70;15.80;98787.00;;;;5027311;28;20200;-81
2023/11/02 00:35:51;;;;;;;1.77;0.70;;;14.30;68.60;15.90;98779.00;;;;5027095;28;20234;-80
2023/11/02 00:38:21;;;;;;;2.22;0.77;;;14.30;68.60;15.90;98770.00;;;;5027852;28;20646;-80
2023/11/02 00:40:49;;;;;;;2.83;0.80;;;14.30;68.70;15.90;98769.00;;;;5026757;28;20220;-80
2023/11/02 00:43:18;;;;;;;2.75;0.70;;;14.40;68.60;15.90;98758.00;;;;5026950;28;20212;-81
2023/11/02 00:45:46;;;;;;;0.85;0.40;;;14.40;68.60;16.00;98736.00;;;;5027012;28;20258;-80
2023/11/02 00:48:23;;;;;;;1.48;0.80;;;14.40;68.60;15.90;98725.00;;;;5023845;28;20741;-80
2023/11/02 00:51:25;;;;;;;2.47;0.60;;;14.40;68.60;15.90;98716.00;;;;5026983;28;20942;-81
2023/11/02 00:53:56;;;;;;;3.90;1.48;;;14.40;68.70;16.00;98699.00;;;;5026987;28;20900;-80
2023/11/02 00:56:27;;;;;;;1.05;0.50;;;14.50;68.60;16.00;98692.00;;;;5027259;28;20232;-80
2023/11/02 00:58:55;;;;;;;3.42;0.70;;;14.50;68.60;16.10;98679.00;;;;5026474;28;20204;-79
2023/11/02 01:01:26;;;;;;;3.35;0.50;;;14.50;68.60;16.10;98681.00;;;;5025466;28;20200;-80
2023/11/02 01:03:59;;;;;;;1.63;0.60;;;14.50;68.60;16.10;98678.00;;;;5027163;28;20728;-80
2023/11/02 01:06:30;;;;;;;1.40;0.70;;;14.50;68.50;16.10;98670.00;;;;5029452;28;20279;-80
2023/11/02 01:09:04;;;;;;;1.52;0.63;;;14.50;68.50;16.10;98673.00;;;;5030548;28;20836;-80
2023/11/02 01:11:36;;;;;;;2.95;0.70;;;14.60;68.60;16.10;98671.00;;;;5030810;28;20274;-80
2023/11/02 01:14:44;;;;;;;2.13;0.65;;;14.60;68.40;16.10;98658.00;;;;5030912;28;20646;-80
2023/11/02 01:17:28;;;;;;;2.67;1.30;;;14.60;68.40;16.10;98647.00;;;;5030673;28;20216;-80
2023/11/02 01:20:05;;;;;;;1.80;0.60;;;14.70;68.40;16.20;98642.00;;;;5021089;28;20212;-80
2023/11/02 01:22:52;;;;;;;2.45;0.90;;;14.70;68.30;16.20;98632.00;;;;5024253;28;20258;-80
2023/11/02 01:25:20;;;;;;;1.25;0.68;;;14.70;68.30;16.30;98615.00;;;;5031320;28;20196;-80
2023/11/02 01:27:47;;;;;;;1.40;0.60;;;14.70;68.20;16.30;98623.00;;;;5030860;28;20263;-80
2023/11/02 01:31:12;;;;;;;2.13;0.50;;;14.70;68.20;16.20;98625.00;;;;5019328;28;20193;-81
2023/11/02 01:34:02;;;;;;;2.92;0.68;;;14.70;68.20;16.20;98620.00;;;;5023710;28;20196;-81
2023/11/02 01:36:37;;;;;;;2.38;0.60;;;14.70;68.00;16.30;98606.00;;;;5031463;28;20220;-80
2023/11/02 01:40:02;;;;;;;2.13;0.88;;;14.80;68.10;16.20;98584.00;;;;5028821;28;20195;-80
2023/11/02 01:42:42;;;;;;;2.30;0.57;;;14.80;68.00;16.30;98566.00;;;;5027421;28;20208;-80
2023/11/02 01:45:13;;;;;;;2.42;0.70;;;14.80;67.90;16.30;98549.00;;;;5026934;28;20211;-81
2023/11/02 01:47:59;;;;;;;1.13;0.52;;;14.80;67.90;16.30;98541.00;;;;5029798;28;20215;-80
2023/11/02 01:50:35;;;;;;;1.85;0.55;;;14.80;67.80;16.40;98523.00;;;;5029704;28;20208;-80
2023/11/02 01:53:45;;;;;;;3.80;0.52;;;14.80;67.80;16.30;98511.00;;;;5030297;28;20203;-80
2023/11/02 01:56:41;;;;;;;1.60;0.68;;;14.90;67.70;16.30;98502.00;;;;5029902;28;20240;-80
2023/11/02 01:59:26;;;;;;;2.33;0.40;;;14.90;67.70;16.30;98490.00;;;;5028885;28;20295;-80
2023/11/02 02:02:03;;;;;;;1.50;0.28;;;14.90;67.70;16.40;98459.00;;;;5023221;28;20192;-80
2023/11/02 02:04:40;;;;;;;1.40;0.45;;;14.90;67.60;16.40;98449.00;;;;5030191;28;20212;-80
2023/11/02 02:07:18;;;;;;;6.90;0.90;;;14.90;67.60;16.40;98437.00;;;;5030781;28;20592;-80
2023/11/02 02:10:13;;;;;;;1.85;0.50;;;14.90;67.50;16.30;98410.00;;;;5029644;28;20249;-79
2023/11/02 02:13:04;;;;;;;4.47;0.57;;;14.90;68.10;16.40;98388.00;;;;5030941;28;20613;-79
2023/11/02 02:15:43;;;;;;;4.28;0.52;;;15.00;67.40;16.40;98377.00;;;;5028616;28;20581;-81
2023/11/02 02:18:27;;;;;;;2.75;0.50;;;15.00;67.40;16.40;98359.00;;;;5021323;28;20202;-80
2023/11/02 02:21:02;;;;;;;3.38;1.00;;;15.00;67.30;16.50;98347.00;;;;5029675;28;20208;-80
2023/11/02 02:23:41;;;;;;;0.98;0.40;;;15.00;67.30;16.40;98322.00;;;;5029469;28;20200;-80
2023/11/02 02:27:03;;;;;;;1.05;0.50;;;15.00;67.30;16.40;98314.00;;;;5028253;28;20206;-79
2023/11/02 02:30:09;;;;;;;4.07;0.75;;;15.00;67.20;16.40;98294.00;;;;5018466;28;20246;-79
2023/11/02 02:33:10;;;;;;;1.70;0.52;;;15.00;67.10;16.40;98273.00;;;;5028559;28;20207;-79
2023/11/02 02:35:49;;;;;;;3.25;0.43;;;15.00;67.10;16.40;98255.00;;;;5026668;28;20199;-80
2023/11/02 02:38:20;;;;;;;1.17;0.40;;;15.00;67.00;16.50;98245.00;;;;5010240;28;20658;-80
2023/11/02 02:40:59;;;;;;;1.48;0.40;;;15.00;67.00;16.40;98251.00;;;;5022133;28;20204;-80
2023/11/02 02:43:31;;;;;;;1.40;0.47;;;14.90;66.90;16.40;98234.00;;;;5010270;28;20577;-80
2023/11/02 02:46:02;;;;;;;2.60;0.73;;;15.00;67.00;16.50;98231.00;;;;5015463;28;20208;-80
2023/11/02 02:48:30;;;;;;;2.28;0.50;;;14.90;67.00;16.50;98228.00;;;;5028560;28;20188;-81
2023/11/02 02:51:03;;;;;;;1.58;0.50;;;15.00;67.00;16.40;98230.00;;;;5028954;28;20586;-80
2023/11/02 02:53:33;;;;;;;2.33;0.20;;;14.90;66.90;16.50;98200.00;;;;5027376;28;20651;-81
2023/11/02 02:56:07;;;;;;;2.05;0.30;;;14.90;67.00;16.40;98213.00;;;;5027397;28;20601;-81
2023/11/02 02:58:43;;;;;;;2.45;0.28;;;15.00;66.90;16.40;98193.00;;;;5028689;28;20614;-80
2023/11/02 03:01:13;;;;;;;1.15;0.43;;;15.00;67.60;16.50;98171.00;;;;5029898;28;20206;-80
2023/11/02 03:03:42;;;;;;;2.60;0.85;;;15.00;66.80;16.50;98158.00;;;;5031891;28;20597;-80
2023/11/02 03:06:12;;;;;;;2.40;0.80;;;15.00;66.70;16.50;98156.00;;;;5032011;28;20673;-81
2023/11/02 03:08:42;;;;;;;1.27;0.30;;;15.00;66.70;16.50;98143.00;;;;5032847;28;20238;-81
2023/11/02 03:11:12;;;;;;;0.50;0.25;;;15.00;66.80;16.50;98127.00;;;;5030038;28;20196;-81
2023/11/02 03:13:43;;;;;;;1.17;0.40;;;15.00;66.70;16.50;98107.00;;;;5028701;28;20291;-80
2023/11/02 03:16:15;;;;;;;3.63;0.50;;;15.00;66.70;16.50;98092.00;;;;5028559;28;20643;-80
2023/11/02 03:18:42;;;;;;;1.52;0.43;;;15.10;66.80;16.60;98072.00;;;;5029347;28;20208;-82
2023/11/02 03:21:11;;;;;;;3.17;0.50;;;15.10;66.80;16.60;98047.00;;;;5029991;28;20200;-80
2023/11/02 03:23:49;;;;;;;1.05;0.32;;;15.10;66.70;16.50;98025.00;;;;5028812;28;20872;-80
2023/11/02 03:26:29;;;;;;;3.35;0.47;;;15.10;66.60;16.50;98037.00;;;;5029284;28;20195;-80
2023/11/02 03:29:21;;;;;;;1.60;0.38;;;15.10;66.50;16.50;98058.00;;;;5029198;28;20203;-80
2023/11/02 03:32:02;;;;;;;1.00;0.50;;;15.10;66.40;16.60;98055.00;;;;5028552;28;20223;-80
2023/11/02 03:34:41;;;;;;;1.27;0.40;;;15.10;66.40;16.60;98044.00;;;;5029785;28;20188;-80
2023/11/02 03:37:20;;;;;;;1.23;0.32;;;15.10;66.50;16.60;98058.00;;;;5028911;28;20223;-79
2023/11/02 03:40:19;;;;;;;1.05;0.38;;;15.10;66.40;16.50;98069.00;;;;5024737;28;20647;-81
2023/11/02 03:42:57;;;;;;;2.30;0.40;;;15.20;66.40;16.60;98087.00;;;;5013311;28;20208;-81
2023/11/02 03:45:53;;;;;;;1.55;0.32;;;15.20;66.50;16.50;98085.00;;;;5028719;28;20666;-79
2023/11/02 03:48:38;;;;;;;2.85;0.55;;;15.20;66.50;16.60;98072.00;;;;5015140;28;20200;-80
2023/11/02 03:51:24;;;;;;;2.25;0.40;;;15.20;66.50;16.60;98028.00;;;;5009578;28;20204;-80
2023/11/02 03:54:18;;;;;;;1.60;0.50;;;15.20;66.50;16.60;97992.00;;;;5020560;28;20208;-80
2023/11/02 03:57:03;;;;;;;2.35;0.63;;;15.20;66.30;16.60;97985.00;;;;5027656;28;20597;-81
2023/11/02 03:59:42;;;;;;;3.00;0.68;;;15.20;66.30;16.70;97957.00;;;;5026657;28;20677;-80
2023/11/02 04:02:27;;;;;;;2.22;0.90;;;15.20;66.30;16.70;97934.00;;;;5029070;28;20247;-80
2023/11/02 04:05:08;;;;;;;1.45;0.32;;;15.20;66.20;16.70;97927.00;;;;5028355;28;20648;-82
2023/11/02 04:07:53;;;;;;;5.05;0.40;;;15.20;66.30;16.70;97913.00;;;;5027811;28;20208;-80
2023/11/02 04:10:27;;;;;;;4.32;0.30;;;15.20;66.10;16.70;97896.00;;;;5028295;28;20196;-81
2023/11/02 04:13:08;;;;;;;1.70;0.30;;;15.30;66.20;16.70;97877.00;;;;5012036;28;20204;-80
2023/11/02 04:15:35;;;;;;;1.20;0.32;;;15.20;66.00;16.80;97870.00;;;;5027890;28;20680;-81
2023/11/02 04:18:03;;;;;;;2.13;0.50;;;15.30;66.10;16.80;97851.00;;;;5027226;28;20600;-81
2023/11/02 04:20:30;;;;;;;1.90;0.43;;;15.20;65.90;16.80;97828.00;;;;5029657;28;20586;-80
2023/11/02 04:22:58;;;;;;;3.05;0.90;;;15.30;65.90;16.80;97810.00;;;;5028702;28;20688;-81
2023/11/02 04:25:26;;;;;;;3.90;0.60;;;15.30;65.90;16.80;97813.00;;;;5028364;28;20211;-80
2023/11/02 04:27:53;;;;;;;2.35;0.40;;;15.30;65.80;16.80;97818.00;;;;5027636;28;20200;-80
2023/11/02 04:30:20;;;;;;;2.55;0.40;;;15.30;65.80;16.80;97831.00;;;;5028344;28;20200;-81
2023/11/02 04:32:48;;;;;;;1.75;0.50;;;15.30;65.80;16.80;97820.00;;;;5028657;28;20200;-80
2023/11/02 04:35:15;;;;;;;1.63;0.43;;;15.30;65.70;16.80;97819.00;;;;5028790;28;21104;-82
2023/11/02 04:37:43;;;;;;;1.35;0.40;;;15.30;65.60;16.80;97799.00;;;;5027339;28;20231;-80
2023/11/02 04:40:11;;;;;;;1.63;0.40;;;15.30;65.60;16.80;97796.00;;;;5027852;28;20197;-80
2023/11/02 04:42:40;;;;;;;2.17;0.43;;;15.30;65.70;16.80;97777.00;;;;5031551;28;20204;-79
2023/11/02 04:45:08;;;;;;;1.60;0.57;;;15.30;65.60;16.80;97746.00;;;;5032300;28;20677;-81
2023/11/02 04:47:35;;;;;;;3.88;0.57;;;15.30;65.50;16.80;97754.00;;;;5032524;28;20215;-81
2023/11/02 04:50:02;;;;;;;1.90;0.47;;;15.30;65.50;16.80;97729.00;;;;5032402;28;20620;-80
2023/11/02 04:52:36;;;;;;;2.17;0.28;;;15.30;65.40;16.80;97708.00;;;;5031497;28;20234;-81
2023/11/02 04:55:05;;;;;;;3.80;0.50;;;15.30;65.30;16.80;97696.00;;;;5031915;28;20226;-80
2023/11/02 04:57:33;;;;;;;3.10;0.40;;;15.40;65.40;16.80;97674.00;;;;5030972;28;20231;-81
2023/11/02 05:00:03;;;;;;;1.95;0.47;;;15.30;65.20;16.80;97668.00;;;;5032349;28;20201;-81
2023/11/02 05:02:31;;;;;;;0.77;0.30;;;15.40;65.30;16.90;97669.00;;;;5033242;28;20216;-79
2023/11/02 05:04:58;;;;;;;1.17;0.47;;;15.40;65.20;16.90;97663.00;;;;5035638;28;20200;-80
2023/11/02 05:07:25;;;;;;;0.70;0.40;;;15.40;65.10;16.90;97666.00;;;;5032212;28;20195;-81
2023/11/02 05:09:52;;;;;;;3.97;0.43;;;15.40;65.80;16.90;97649.00;;;;5031604;28;20275;-81
2023/11/02 05:12:19;;;;;;;2.47;0.50;;;15.40;65.00;16.90;97659.00;;;;5017540;28;20575;-80
2023/11/02 05:14:46;;;;;;;1.10;0.60;;;15.40;64.90;16.90;97634.00;;;;5025003;28;20196;-80
2023/11/02 05:17:15;;;;;;;2.85;0.93;;;15.40;64.70;16.90;97604.00;;;;5031189;28;20714;-80
2023/11/02 05:19:42;;;;;;;4.38;0.50;;;15.40;64.80;16.90;97616.00;;;;5032942;28;20659;-81
2023/11/02 05:22:09;;;;;;;1.60;0.55;;;15.40;64.60;16.90;97617.00;;;;5032573;28;20196;-82
2023/11/02 05:24:36;;;;;;;1.42;0.40;;;15.40;64.70;16.90;97620.00;;;;5031481;28;20258;-83
2023/11/02 05:27:03;;;;;;;2.00;0.50;;;15.40;64.70;16.90;97605.00;;;;5025359;28;20204;-80
2023/11/02 05:29:30;;;;;;;1.05;0.50;;;15.50;64.50;16.90;97616.00;;;;5024596;28;20278;-81
2023/11/02 05:31:58;;;;;;;2.28;0.82;;;15.40;64.70;16.90;97603.00;;;;5019048;28;20676;-80
2023/11/02 05:34:26;;;;;;;4.95;0.75;;;15.40;64.50;16.90;97608.00;;;;5019111;28;20959;-80
2023/11/02 05:36:53;;;;;;;2.55;0.77;;;15.50;64.60;17.00;97599.00;;;;5020415;28;20200;-81
2023/11/02 05:39:20;;;;;;;1.88;0.52;;;15.40;64.60;17.00;97581.00;;;;5026399;28;20322;-79
2023/11/02 05:41:47;;;;;;;1.67;0.40;;;15.50;64.60;17.00;97597.00;;;;5027993;28;20208;-81
2023/11/02 05:44:14;;;;;;;2.58;0.47;;;15.50;64.50;17.00;97582.00;;;;5028449;28;20203;-81
2023/11/02 05:46:41;;;;;;;1.40;0.35;;;15.50;64.50;17.00;97568.00;;;;5030583;28;20200;-80
2023/11/02 05:49:08;;;;;;;3.53;0.55;;;15.50;64.60;16.90;97566.00;;;;5028145;28;20200;-80
2023/11/02 05:51:37;;;;;;;3.03;1.08;;;15.50;64.60;16.90;97549.00;;;;5025820;28;20209;-80
2023/11/02 05:54:04;;;;;;;2.08;0.50;;;15.50;64.70;16.90;97538.00;;;;5029054;28;20574;-80
2023/11/02 05:56:31;;;;;;;2.05;0.63;;;15.50;64.70;16.90;97534.00;;;;5051440;28;20235;-80
2023/11/02 05:58:58;;;;;;;0.73;0.22;;;15.50;64.80;16.90;97531.00;;;;5045205;28;20303;-80
2023/11/02 06:01:25;;;;;;;3.88;0.80;;;15.50;64.80;16.90;97534.00;;;;5027841;28;20222;-80
2023/11/02 06:03:52;;;;;;;2.92;0.85;;;15.40;64.70;16.90;97526.00;;;;5030302;28;20258;-80
2023/11/02 06:06:20;;;;;;;0.93;0.40;;;15.40;64.70;16.80;97527.00;;;;5020885;28;20208;-79
2023/11/02 06:08:48;;;;;;;0.68;0.40;;;15.40;64.70;16.80;97514.00;;;;5011350;28;20247;-80
2023/11/02 06:11:15;;;;;;;3.83;0.70;;;15.40;64.70;16.80;97522.00;;;;5028102;28;20196;-81
2023/11/02 06:13:43;;;;;;;0.98;0.50;;;15.40;64.70;16.80;97511.00;;;;5017771;28;20189;-80
2023/11/02 06:16:11;;;;;;;4.22;0.55;;;15.30;64.70;16.80;97511.00;;;;5028424;28;20196;-80
2023/11/02 06:18:39;;;;;;;1.55;0.50;;;15.30;64.80;16.80;97502.00;;;;5029900;28;20286;-80
2023/11/02 06:21:07;;;;;;;1.02;0.40;;;15.30;64.90;16.80;97500.00;;;;5029578;28;20243;-80
2023/11/02 06:23:35;;;;;;;1.95;0.60;;;15.30;65.10;16.80;97498.00;;;;5022457;28;20197;-79
2023/11/02 06:26:04;;;;;;;2.13;0.50;;;15.30;65.10;16.70;97483.00;;;;5027910;28;20635;-79
2023/11/02 06:28:31;;;;;;;1.65;0.40;;;15.30;65.10;16.70;97483.00;;;;5029989;28;20200;-79
2023/11/02 06:30:59;;;;;;;2.35;0.60;;;15.30;65.20;16.70;97472.00;;;;5030149;28;20203;-80
2023/11/02 06:33:30;;;;;;;1.05;0.43;;;15.20;65.20;16.70;97466.00;;;;5029650;28;20208;-81
2023/11/02 06:35:57;;;;;;;1.48;0.80;;;15.20;65.30;16.70;97470.00;;;;5029785;28;20200;-80
2023/11/02 06:38:24;;;;;;;0.95;0.60;;;15.20;65.30;16.70;97449.00;;;;5029522;28;20259;-80
2023/11/02 06:40:51;;;;;;;2.42;0.90;;;15.20;65.40;16.70;97451.00;;;;5027317;28;20294;-80
2023/11/02 06:43:19;;;;;;;0.68;0.30;;;15.20;65.50;16.70;97451.00;;;;5027093;28;20681;-80
2023/11/02 06:45:47;;;;;;;1.23;0.45;;;15.20;65.50;16.70;97445.00;;;;5028038;28;20208;-80
2023/11/02 06:48:14;;;;;;;4.55;1.08;;;15.10;65.60;16.70;97449.00;;;;5025515;28;20192;-80
2023/11/02 06:50:43;;;;;;;0.98;0.30;;;15.10;65.60;16.60;97420.00;;;;5029753;28;20240;-79
2023/11/02 06:53:10;;;;;;;1.10;0.40;;;15.10;65.70;16.60;97424.00;;;;5030453;28;20188;-80
2023/11/02 06:55:39;;;;;;;1.67;0.60;;;15.10;65.70;16.60;97417.00;;;;5023879;28;20203;-80
2023/11/02 06:58:06;;;;;;;0.70;0.40;;;15.10;66.40;16.60;97387.00;;;;5029180;28;20238;-80
2023/11/02 07:00:34;;;;;;;0.70;0.25;;;15.10;65.70;16.60;97383.00;;;;5025933;28;20204;-81
2023/11/02 07:03:01;;;;;;;0.70;0.40;;;15.10;65.80;16.60;97382.00;;;;5029101;28;20227;-80
2023/11/02 07:05:28;;;;;;;0.85;0.50;;;15.10;65.90;16.60;97357.00;;;;5021233;28;20203;-80
2023/11/02 07:07:56;;;;;;;1.63;0.50;;;15.10;65.90;16.60;97344.00;;;;5028622;28;20204;-80
2023/11/02 07:10:23;;;;;;;1.15;0.47;;;15.10;66.10;16.60;97337.00;;;;5027444;28;20205;-80
2023/11/02 07:12:50;;;;;;;0.93;0.35;;;15.00;66.10;16.60;97337.00;;;;5029696;28;20650;-80
2023/11/02 07:15:17;;;;;;;0.60;0.30;;;15.10;66.30;16.60;97322.00;;;;5028190;28;20670;-79
2023/11/02 07:17:45;;;;;;;1.02;0.40;;;15.10;66.40;16.60;97310.00;;;;5026923;28;20223;-80
2023/11/02 07:20:13;;;;;;;0.73;0.30;;;15.10;66.40;16.60;97291.00;;;;5029903;28;20192;-79
2023/11/02 07:22:40;;;;;;;3.22;0.35;;;15.10;66.60;16.70;97300.00;;;;5028863;28;20655;-79
2023/11/02 07:25:09;;;;;;;0.75;0.30;;;15.10;66.70;16.70;97326.00;;;;5028908;28;20200;-80
2023/11/02 07:27:36;;;;;;;0.77;0.30;;;15.20;66.80;16.70;97327.00;;;;5028699;28;20211;-79
2023/11/02 07:30:04;;;;;;;0.77;0.55;;;15.20;66.80;16.80;97329.00;;;;5024022;28;20581;-80
2023/11/02 07:32:31;;;;;;;0.80;0.40;;;15.20;66.90;16.80;97320.00;;;;5017689;28;20201;-80
2023/11/02 07:35:00;;;;;;;0.85;0.20;;;15.20;66.90;16.80;97313.00;;;;5027696;28;20230;-80
2023/11/02 07:37:27;;;;;;;1.83;0.45;;;15.20;67.00;16.80;97301.00;;;;5027939;28;20322;-80
2023/11/02 07:39:54;;;;;;;0.95;0.60;;;15.30;67.40;16.90;97297.00;;;;5026761;28;20212;-81
2023/11/02 07:42:21;;;;;;;0.68;0.30;;;15.30;67.10;16.90;97300.00;;;;5025935;28;20681;-81
2023/11/02 07:44:48;;;;;;;1.00;0.60;;;15.40;67.10;16.90;97299.00;;;;5027578;28;20215;-82
2023/11/02 07:47:15;;;;;;;0.73;0.55;;;15.40;67.10;16.90;97300.00;;;;5029121;28;20207;-82
2023/11/02 07:49:42;;;;;;;1.25;0.45;;;15.40;67.10;17.00;97295.00;;;;5028255;28;20196;-82
2023/11/02 07:52:10;;;;;;;1.13;0.38;;;15.40;67.00;17.00;97283.00;;;;5028159;28;20204;-83
2023/11/02 07:54:38;;;;;;;0.60;0.22;;;15.50;67.00;17.00;97268.00;;;;5027754;28;20199;-79
2023/11/02 07:57:08;;;;;;;2.03;0.70;;;15.50;67.00;17.00;97266.00;;;;5028200;28;20232;-79
2023/11/02 07:59:35;;;;;;;0.50;0.30;;;15.50;67.00;17.10;97266.00;;;;5025404;28;20212;-78
2023/11/02 08:02:03;;;;;;;0.73;0.30;;;15.50;67.00;17.10;97262.00;;;;5026645;28;20200;-79
2023/11/02 08:04:30;;;;;;;2.10;0.70;;;15.60;67.00;17.10;97241.00;;;;5029078;28;20199;-80
2023/11/02 08:06:58;;;;;;;4.57;0.30;;;15.60;67.00;17.10;97248.00;;;;5021233;28;20200;-81
2023/11/02 08:09:28;;;;;;;1.08;0.50;;;15.60;66.90;17.10;97225.00;;;;5027926;28;20613;-79
2023/11/02 08:11:55;;;;;;;2.08;0.70;;;15.60;66.90;17.20;97229.00;;;;5017599;28;20233;-79
2023/11/02 08:14:22;;;;;;;1.48;0.40;;;15.60;66.90;17.20;97220.00;;;;5022781;28;20211;-80
2023/11/02 08:16:50;;;;;;;1.30;0.40;;;15.70;67.00;17.20;97207.00;;;;5024547;28;20199;-79
2023/11/02 08:19:17;;;;;;;2.83;0.55;;;15.70;66.90;17.20;97221.00;;;;5022209;28;20313;-81
2023/11/02 08:21:44;;;;;;;2.05;0.30;;;15.70;66.90;17.30;97216.00;;;;5023001;28;20576;-80
2023/11/02 08:24:12;;;;;;;1.35;0.30;;;15.80;67.00;17.30;97218.00;;;;5022140;28;20196;-80
2023/11/02 08:26:40;;;;;;;1.70;0.30;;;15.80;67.00;17.30;97222.00;;;;5028432;28;20207;-80
2023/11/02 08:29:07;;;;;;;0.82;0.57;;;15.80;66.90;17.40;97213.00;;;;5030496;28;20203;-80
2023/11/02 08:31:34;;;;;;;1.90;0.40;;;15.90;66.90;17.40;97213.00;;;;5029950;28;20199;-80
2023/11/02 08:34:02;;;;;;;1.65;0.60;;;15.90;67.00;17.50;97209.00;;;;5027098;28;20207;-80
2023/11/02 08:36:31;;;;;;;1.33;0.35;;;15.90;67.00;17.50;97201.00;;;;5030937;28;20196;-81
2023/11/02 08:38:58;;;;;;;1.02;0.35;;;16.00;67.00;17.60;97194.00;;;;5030803;28;20633;-80
2023/11/02 08:41:28;;;;;;;3.92;0.70;;;16.00;66.90;17.60;97197.00;;;;5030542;28;20188;-80
2023/11/02 08:43:58;;;;;;;2.13;0.40;;;16.10;66.90;17.70;97191.00;;;;5029678;28;20218;-80
2023/11/02 08:46:27;;;;;;;2.05;0.40;;;16.20;67.60;17.80;97184.00;;;;5030888;28;20200;-79
2023/11/02 08:48:54;;;;;;;0.85;0.40;;;16.20;66.80;17.90;97176.00;;;;5029922;28;20846;-80
2023/11/02 08:51:24;;;;;;;0.73;0.30;;;16.30;66.60;17.90;97178.00;;;;5031414;28;20192;-81
2023/11/02 08:53:51;;;;;;;1.52;0.60;;;16.40;66.50;18.00;97177.00;;;;5031324;28;20192;-80
2023/11/02 08:56:19;;;;;;;1.77;0.35;;;16.40;66.40;18.10;97174.00;;;;5029925;28;20594;-80
2023/11/02 08:58:49;;;;;;;1.38;0.40;;;16.50;66.30;18.20;97170.00;;;;5032849;28;20364;-80
2023/11/02 09:01:22;;;;;;;4.15;0.68;;;16.60;66.20;18.20;97159.00;;;;5023586;28;20291;-81
2023/11/02 09:03:51;;;;;;;2.08;0.30;;;16.70;65.90;18.30;97180.00;;;;5029801;28;20263;-80
2023/11/02 09:06:19;;;;;;;2.85;0.70;;;16.80;65.90;18.40;97175.00;;;;5030409;28;20205;-79
2023/11/02 09:08:49;;;;;;;10.82;0.90;;;16.80;65.80;18.40;97147.00;;;;5029425;28;20199;-82
2023/11/02 09:11:17;;;;;;;2.72;0.60;;;16.90;65.50;18.50;97157.00;;;;5030147;28;20196;-81
2023/11/02 09:13:45;;;;;;;3.90;0.63;;;17.00;65.50;18.60;97140.00;;;;5030124;28;20196;-81
2023/11/02 09:16:12;;;;;;;3.40;0.85;;;17.00;65.20;18.60;97134.00;;;;5031294;28;20196;-80
2023/11/02 09:18:40;;;;;;;1.70;0.47;;;17.10;65.10;18.70;97144.00;;;;5031454;28;20274;-80
2023/11/02 09:21:09;;;;;;;4.75;0.63;;;17.20;65.10;18.80;97141.00;;;;5029528;28;20200;-81
2023/11/02 09:23:37;;;;;;;4.00;0.43;;;17.20;65.00;18.90;97106.00;;;;5028879;28;20200;-80
2023/11/02 09:26:06;;;;;;;2.55;0.45;;;17.30;64.80;18.90;97145.00;;;;5030880;28;20258;-81
2023/11/02 09:28:34;;;;;;;6.32;0.70;;;17.40;64.70;19.00;97131.00;;;;5031695;28;20192;-81
2023/11/02 09:31:01;;;;;;;2.42;0.70;;;17.50;64.40;19.00;97120.00;;;;5029551;28;20208;-80
2023/11/02 09:33:29;;;;;;;3.15;1.15;;;17.50;64.20;19.20;97113.00;;;;5024800;28;20243;-81
2023/11/02 09:35:58;;;;;;;5.13;0.77;;;17.60;64.00;19.20;97123.00;;;;5022771;28;20196;-81
2023/11/02 09:38:25;;;;;;;2.65;0.52;;;17.70;63.90;19.30;97122.00;;;;5024163;28;20281;-81
2023/11/02 09:40:52;;;;;;;1.65;0.25;;;17.80;63.80;19.30;97102.00;;;;5024125;28;20678;-82
2023/11/02 09:43:21;;;;;;;3.65;0.45;;;17.80;63.70;19.40;97115.00;;;;5024424;28;20192;-81
2023/11/02 09:45:48;;;;;;;3.67;0.77;;;17.90;63.20;19.40;97114.00;;;;5027536;28;20413;-81
2023/11/02 09:48:15;;;;;;;3.20;0.95;;;17.90;62.20;19.40;97099.00;;;;5023481;28;20196;-81
2023/11/02 09:50:43;;;;;;;4.53;1.10;;;18.00;62.20;19.40;97103.00;;;;5029641;28;20193;-82
2023/11/02 09:53:12;;;;;;;1.65;0.35;;;18.00;62.20;19.40;97090.00;;;;5027628;28;20204;-81
2023/11/02 09:55:41;;;;;;;3.10;0.50;;;18.00;61.80;19.40;97088.00;;;;5030795;28;20654;-83
2023/11/02 09:58:09;;;;;;;2.90;0.85;;;18.00;61.80;19.40;97083.00;;;;5031538;28;20212;-84
2023/11/02 10:00:37;;;;;;;3.58;0.95;;;18.00;61.80;19.40;97092.00;;;;5030066;28;20307;-81
2023/11/02 10:03:04;;;;;;;4.10;0.75;;;18.00;61.10;19.40;97085.00;;;;5028996;28;20224;-81
2023/11/02 10:05:32;;;;;;;5.15;0.70;;;18.00;61.00;19.40;97077.00;;;;5021651;28;20211;-81
2023/11/02 10:07:59;;;;;;;4.70;0.50;;;18.00;60.80;19.40;97087.00;;;;5028397;28;21045;-82
2023/11/02 10:10:33;;;;;;;4.38;0.70;;;18.00;61.30;19.30;97086.00;;;;5029657;28;20192;-81
2023/11/02 10:13:01;;;;;;;2.45;0.43;;;18.00;60.70;19.30;97084.00;;;;5029412;28;20212;-81
2023/11/02 10:15:29;;;;;;;2.10;0.60;;;18.00;61.20;19.30;97081.00;;;;5028036;28;20205;-80
2023/11/02 10:17:56;;;;;;;2.92;0.65;;;18.00;60.90;19.30;97091.00;;;;5028856;28;20189;-80
2023/11/02 10:20:24;;;;;;;2.90;0.80;;;18.00;60.00;19.30;97073.00;;;;5029733;28;20717;-79
2023/11/02 10:23:05;;;;;;;7.07;0.63;;;17.90;59.80;19.20;97075.00;;;;5030129;28;20208;-80
2023/11/02 10:25:34;;;;;;;2.10;0.28;;;17.90;59.90;19.30;97064.00;;;;5023472;28;20200;-79
2023/11/02 10:28:02;;;;;;;3.97;0.35;;;17.90;60.20;19.30;97073.00;;;;5030575;28;20322;-79
2023/11/02 10:30:29;;;;;;;3.20;0.43;;;17.90;59.60;19.30;97068.00;;;;5026381;28;20193;-80
2023/11/02 10:33:04;;;;;;;4.20;0.50;;;17.90;60.10;19.20;97051.00;;;;5021159;28;20201;-81
2023/11/02 10:35:31;;;;;;;5.20;0.43;;;17.90;59.50;19.30;97063.00;;;;5021045;28;20198;-80
2023/11/02 10:37:59;;;;;;;3.00;0.98;;;17.90;59.90;19.30;97064.00;;;;5020119;28;20192;-80
2023/11/02 10:40:43;;;;;;;4.15;0.88;;;17.90;59.40;19.30;97043.00;;;;5026736;28;20228;-80
2023/11/02 10:43:18;;;;;;;3.13;0.98;;;17.90;58.80;19.40;97045.00;;;;5029498;28;20322;-80
2023/11/02 10:45:50;;;;;;;1.42;0.50;;;18.00;59.90;19.40;97045.00;;;;5029571;28;20196;-81
2023/11/02 10:48:18;;;;;;;4.32;0.50;;;18.00;59.60;19.50;97054.00;;;;5029466;28;20266;-80
2023/11/02 10:50:47;;;;;;;4.03;0.63;;;18.10;59.60;19.50;97045.00;;;;5029959;28;20180;-80
2023/11/02 10:53:27;;;;;;;3.58;0.43;;;18.20;59.30;19.50;97038.00;;;;5028429;28;20204;-81
2023/11/02 10:56:04;;;;;;;2.80;0.73;;;18.20;59.10;19.50;97036.00;;;;5028766;28;20239;-80
2023/11/02 10:58:32;;;;;;;4.22;0.73;;;18.20;58.90;19.60;97037.00;;;;5027909;28;20198;-80
2023/11/02 11:01:03;;;;;;;6.35;1.35;;;18.20;58.80;19.60;97039.00;;;;5025099;28;20204;-80
2023/11/02 11:03:30;;;;;;;5.32;0.75;;;18.30;58.90;19.60;97042.00;;;;5024809;28;20224;-80
2023/11/02 11:05:59;;;;;;;3.75;0.90;;;18.30;58.30;19.60;97043.00;;;;5026776;28;20200;-80
2023/11/02 11:08:31;;;;;;;12.70;1.45;;;18.30;57.90;19.60;97014.00;;;;5028781;28;20193;-80
2023/11/02 11:11:00;;;;;;;4.40;0.73;;;18.30;58.00;19.60;97007.00;;;;5027542;28;21136;-80
2023/11/02 11:13:31;;;;;;;5.72;0.75;;;18.30;57.80;19.60;97006.00;;;;5028275;28;20211;-80
2023/11/02 11:15:59;;;;;;;3.95;0.80;;;18.30;58.10;19.70;97005.00;;;;5025500;28;20204;-80
2023/11/02 11:18:28;;;;;;;3.78;0.82;;;18.30;58.00;19.70;97013.00;;;;5025637;28;20200;-80